createdAt,value
2018-05-27T00:02:07.635Z,3.95
2018-05-27T00:04:35.107Z,3.42
2018-05-27T00:07:02.587Z,3.40
2018-05-27T00:09:30.059Z,4.10
2018-05-27T00:11:58.298Z,4.20
2018-05-27T00:14:25.792Z,3.50
2018-05-27T00:16:53.938Z,4.22
2018-05-27T00:19:21.413Z,3.62
2018-05-27T00:21:49.670Z,4.18
2018-05-27T00:24:17.134Z,3.85
2018-05-27T00:26:44.608Z,3.62
2018-05-27T00:29:12.838Z,3.97
2018-05-27T00:31:40.340Z,3.72
2018-05-27T00:34:08.578Z,3.65
2018-05-27T00:36:36.067Z,3.60
2018-05-27T00:39:03.525Z,3.92
2018-05-27T00:41:31.794Z,4.40
2018-05-27T00:43:59.332Z,4.20
2018-05-27T00:46:26.809Z,3.87
2018-05-27T00:48:54.319Z,3.47
2018-05-27T00:51:21.811Z,3.83
2018-05-27T00:54:01.114Z,4.10
2018-05-27T00:56:28.607Z,4.12
2018-05-27T00:58:56.064Z,3.80
2018-05-27T01:01:23.529Z,3.97
2018-05-27T01:03:50.986Z,3.78
2018-05-27T01:06:18.467Z,3.80
2018-05-27T01:08:45.945Z,4.03
2018-05-27T01:11:13.435Z,3.95
2018-05-27T01:13:40.900Z,3.78
2018-05-27T01:16:08.388Z,3.60
2018-05-27T01:18:36.647Z,4.15
2018-05-27T01:21:04.915Z,4.00
2018-05-27T01:23:32.442Z,3.72
2018-05-27T01:25:59.906Z,3.65
2018-05-27T01:28:27.390Z,4.20
2018-05-27T01:30:54.867Z,4.10
2018-05-27T01:33:23.126Z,3.67
2018-05-27T01:35:50.585Z,3.95
2018-05-27T01:38:18.059Z,4.00
2018-05-27T01:40:46.306Z,3.92
2018-05-27T01:43:13.785Z,4.22
2018-05-27T01:45:42.033Z,4.37
2018-05-27T01:48:09.522Z,4.00
2018-05-27T01:50:37.765Z,4.07
2018-05-27T01:53:05.238Z,3.80
2018-05-27T01:55:32.710Z,4.15
2018-05-27T01:58:00.950Z,3.95
2018-05-27T02:00:28.456Z,4.22
2018-05-27T02:02:56.698Z,3.85
2018-05-27T02:05:24.167Z,4.35
2018-05-27T02:07:51.638Z,3.72
2018-05-27T02:10:19.870Z,3.65
2018-05-27T02:12:47.370Z,3.92
2018-05-27T02:15:15.606Z,3.92
2018-05-27T02:17:43.094Z,3.90
2018-05-27T02:20:11.323Z,4.43
2018-05-27T02:22:38.810Z,4.25
2018-05-27T02:25:06.315Z,4.32
2018-05-27T02:27:33.803Z,4.05
2018-05-27T02:30:01.278Z,3.83
2018-05-27T02:32:28.769Z,3.90
2018-05-27T02:34:57.032Z,3.60
2018-05-27T02:37:24.506Z,3.92
2018-05-27T02:39:51.987Z,3.83
2018-05-27T02:42:19.465Z,4.22
2018-05-27T02:44:46.935Z,4.45
2018-05-27T02:47:14.415Z,3.72
2018-05-27T02:49:41.896Z,4.15
2018-05-27T02:52:11.046Z,4.07
2018-05-27T02:54:38.536Z,4.00
2018-05-27T02:57:06.782Z,3.85
2018-05-27T02:59:34.310Z,4.35
2018-05-27T03:02:01.784Z,4.10
2018-05-27T03:04:29.251Z,4.80
2018-05-27T03:06:56.754Z,4.25
2018-05-27T03:09:24.985Z,4.12
2018-05-27T03:11:52.461Z,4.70
2018-05-27T03:14:19.947Z,4.43
2018-05-27T03:16:47.456Z,4.40
2018-05-27T03:19:14.919Z,4.55
2018-05-27T03:21:42.382Z,4.30
2018-05-27T03:24:09.871Z,4.25
2018-05-27T03:26:38.095Z,4.20
2018-05-27T03:29:05.582Z,4.32
2018-05-27T03:31:33.062Z,4.00
2018-05-27T03:34:00.576Z,3.90
2018-05-27T03:36:28.053Z,4.25
2018-05-27T03:38:55.570Z,4.57
2018-05-27T03:41:23.041Z,4.30
2018-05-27T03:43:50.521Z,3.87
2018-05-27T03:46:17.998Z,4.18
2018-05-27T03:48:46.255Z,4.50
2018-05-27T03:51:13.746Z,5.00
2018-05-27T03:53:41.211Z,4.65
2018-05-27T03:56:08.690Z,4.65
2018-05-27T03:58:36.201Z,4.57
2018-05-27T04:01:04.431Z,3.92
2018-05-27T04:03:31.945Z,4.10
2018-05-27T04:06:12.134Z,5.05
2018-05-27T04:08:39.603Z,4.80
2018-05-27T04:11:07.093Z,4.35
2018-05-27T04:13:34.628Z,4.25
2018-05-27T04:16:02.122Z,4.03
2018-05-27T04:18:30.351Z,4.57
2018-05-27T04:20:57.854Z,4.70
2018-05-27T04:23:26.125Z,4.20
2018-05-27T04:25:54.358Z,4.53
2018-05-27T04:28:21.874Z,4.55
2018-05-27T04:30:49.875Z,4.85
2018-05-27T04:33:17.344Z,4.15
2018-05-27T04:35:44.809Z,4.60
2018-05-27T04:38:12.276Z,4.50
2018-05-27T04:40:39.758Z,4.70
2018-05-27T04:43:07.997Z,4.43
2018-05-27T04:45:35.477Z,4.70
2018-05-27T04:48:02.965Z,4.37
2018-05-27T04:50:30.452Z,4.20
2018-05-27T04:52:57.970Z,4.53
2018-05-27T04:55:26.210Z,3.92
2018-05-27T04:57:53.703Z,3.92
2018-05-27T05:00:21.939Z,4.30
2018-05-27T05:02:49.409Z,4.43
2018-05-27T05:05:16.891Z,4.45
2018-05-27T05:07:45.133Z,4.25
2018-05-27T05:10:12.620Z,4.45
2018-05-27T05:12:40.875Z,4.55
2018-05-27T05:15:08.343Z,4.93
2018-05-27T05:17:35.824Z,4.15
2018-05-27T05:20:03.322Z,4.47
2018-05-27T05:22:30.827Z,4.12
2018-05-27T05:24:59.201Z,4.25
2018-05-27T05:27:26.726Z,4.40
2018-05-27T05:29:54.199Z,4.57
2018-05-27T05:32:21.674Z,5.18
2018-05-27T05:34:53.077Z,4.72
2018-05-27T05:37:20.541Z,4.40
2018-05-27T05:39:48.014Z,4.47
2018-05-27T05:42:15.529Z,4.43
2018-05-27T05:44:43.009Z,4.35
2018-05-27T05:47:10.486Z,4.50
2018-05-27T05:49:37.948Z,4.80
2018-05-27T05:52:05.450Z,4.85
2018-05-27T05:54:32.910Z,4.43
2018-05-27T05:57:00.417Z,4.62
2018-05-27T05:59:27.887Z,4.78
2018-05-27T06:01:55.369Z,4.20
2018-05-27T06:04:23.613Z,4.82
2018-05-27T06:06:51.126Z,4.80
2018-05-27T06:09:18.590Z,4.65
2018-05-27T06:11:46.083Z,4.60
2018-05-27T06:14:13.574Z,4.60
2018-05-27T06:16:41.802Z,4.50
2018-05-27T06:19:09.287Z,4.93
2018-05-27T06:21:36.749Z,4.37
2018-05-27T06:24:04.999Z,5.00
2018-05-27T06:26:32.623Z,4.37
2018-05-27T06:29:00.106Z,4.65
2018-05-27T06:31:27.657Z,4.75
2018-05-27T06:33:55.157Z,4.97
2018-05-27T06:36:23.540Z,5.45
2018-05-27T06:38:51.787Z,4.93
2018-05-27T06:41:19.288Z,5.78
2018-05-27T06:43:47.523Z,4.93
2018-05-27T06:46:15.034Z,5.25
2018-05-27T06:48:42.506Z,4.90
2018-05-27T06:51:09.986Z,5.78
2018-05-27T06:53:37.471Z,5.07
2018-05-27T06:56:04.952Z,5.20
2018-05-27T06:58:33.193Z,4.60
2018-05-27T07:01:00.654Z,5.37
2018-05-27T07:03:28.124Z,4.78
2018-05-27T07:05:56.370Z,5.32
2018-05-27T07:08:23.853Z,5.22
2018-05-27T07:10:51.336Z,5.18
2018-05-27T07:13:19.570Z,5.03
2018-05-27T07:15:47.047Z,4.62
2018-05-27T07:18:15.290Z,5.18
2018-05-27T07:20:42.762Z,4.57
2018-05-27T07:23:10.299Z,5.10
2018-05-27T07:25:37.785Z,4.57
2018-05-27T07:28:05.301Z,4.82
2018-05-27T07:30:32.762Z,5.00
2018-05-27T07:33:00.246Z,4.60
2018-05-27T07:35:27.718Z,4.47
2018-05-27T07:37:55.190Z,5.10
2018-05-27T07:40:23.422Z,4.60
2018-05-27T07:42:50.890Z,4.80
2018-05-27T07:45:18.426Z,5.22
2018-05-27T07:47:45.892Z,5.70
2018-05-27T07:50:13.356Z,5.10
2018-05-27T07:52:40.839Z,5.28
2018-05-27T07:55:08.326Z,5.22
2018-05-27T07:57:35.821Z,5.32
2018-05-27T08:00:03.300Z,4.82
2018-05-27T08:02:30.784Z,4.95
2018-05-27T08:04:59.031Z,6.12
2018-05-27T08:07:26.546Z,5.37
2018-05-27T08:09:54.025Z,5.03
2018-05-27T08:12:21.496Z,5.20
2018-05-27T08:14:48.966Z,5.05
2018-05-27T08:17:16.447Z,5.15
2018-05-27T08:19:44.700Z,5.00
2018-05-27T08:22:12.174Z,5.25
2018-05-27T08:24:39.726Z,5.12
2018-05-27T08:27:07.224Z,4.95
2018-05-27T08:29:34.690Z,4.95
2018-05-27T08:32:02.198Z,4.65
2018-05-27T08:34:29.684Z,4.75
2018-05-27T08:36:57.150Z,4.90
2018-05-27T08:39:24.630Z,4.55
2018-05-27T08:41:52.867Z,4.62
2018-05-27T08:44:20.343Z,4.68
2018-05-27T08:46:47.842Z,6.12
2018-05-27T08:49:15.347Z,6.05
2018-05-27T08:51:42.876Z,4.93
2018-05-27T08:54:10.351Z,4.65
2018-05-27T08:56:38.603Z,4.45
2018-05-27T08:59:06.084Z,4.85
2018-05-27T09:01:34.320Z,5.10
2018-05-27T09:04:02.570Z,4.60
2018-05-27T09:06:30.054Z,4.60
2018-05-27T09:08:57.597Z,5.00
2018-05-27T09:11:25.782Z,4.32
2018-05-27T09:13:53.283Z,12.18
2018-05-27T09:16:20.827Z,7.30
2018-05-27T09:18:48.324Z,5.90
2018-05-27T09:21:15.790Z,4.85
2018-05-27T09:23:43.268Z,4.15
2018-05-27T09:26:10.786Z,4.25
2018-05-27T09:28:38.255Z,5.37
2018-05-27T09:31:05.866Z,4.25
2018-05-27T09:33:33.374Z,5.55
2018-05-27T09:36:00.852Z,4.72
2018-05-27T09:38:28.341Z,5.68
2018-05-27T09:40:55.838Z,5.28
2018-05-27T09:43:23.374Z,4.75
2018-05-27T09:45:51.638Z,4.37
2018-05-27T09:48:19.100Z,4.62
2018-05-27T09:50:47.345Z,4.22
2018-05-27T09:53:14.844Z,4.22
2018-05-27T09:55:43.077Z,4.10
2018-05-27T09:58:10.951Z,4.35
2018-05-27T10:00:38.434Z,4.72
2018-05-27T10:03:07.101Z,4.25
2018-05-27T10:05:34.597Z,4.07
2018-05-27T10:08:02.075Z,4.70
2018-05-27T10:10:32.843Z,3.97
2018-05-27T10:13:04.452Z,4.78
2018-05-27T10:15:31.985Z,4.65
2018-05-27T10:18:01.717Z,4.12
2018-05-27T10:20:29.313Z,4.07
2018-05-27T10:22:56.770Z,4.20
2018-05-27T10:25:24.249Z,4.78
2018-05-27T10:27:51.757Z,4.97
2018-05-27T10:30:19.215Z,4.28
2018-05-27T10:32:46.710Z,4.80
2018-05-27T10:35:14.163Z,4.70
2018-05-27T10:37:41.641Z,5.12
2018-05-27T10:40:09.154Z,4.35
2018-05-27T10:42:36.662Z,4.82
2018-05-27T10:45:04.918Z,4.57
2018-05-27T10:47:32.418Z,4.12
2018-05-27T10:49:59.884Z,4.22
2018-05-27T10:52:27.342Z,5.10
2018-05-27T10:54:54.817Z,4.72
2018-05-27T10:57:22.289Z,4.37
2018-05-27T10:59:50.558Z,4.95
2018-05-27T11:02:18.014Z,4.18
2018-05-27T11:04:45.498Z,4.60
2018-05-27T11:07:13.026Z,4.57
2018-05-27T11:09:40.534Z,4.40
2018-05-27T11:12:08.847Z,4.15
2018-05-27T11:14:36.329Z,5.57
2018-05-27T11:17:03.789Z,6.30
2018-05-27T11:19:31.274Z,4.35
2018-05-27T11:21:58.754Z,4.25
2018-05-27T11:24:26.224Z,4.12
2018-05-27T11:26:53.702Z,4.35
2018-05-27T11:29:21.178Z,4.93
2018-05-27T11:31:48.657Z,5.43
2018-05-27T11:34:16.138Z,4.65
2018-05-27T11:36:44.440Z,4.82
2018-05-27T11:39:11.928Z,4.35
2018-05-27T11:41:39.405Z,5.32
2018-05-27T11:44:06.898Z,4.95
2018-05-27T11:46:34.391Z,5.10
2018-05-27T11:49:01.870Z,4.70
2018-05-27T11:51:29.338Z,4.78
2018-05-27T11:53:56.827Z,5.60
2018-05-27T11:56:24.284Z,4.43
2018-05-27T11:58:51.753Z,4.87
2018-05-27T12:01:19.218Z,4.95
2018-05-27T12:03:46.757Z,4.18
2018-05-27T12:06:14.222Z,4.82
2018-05-27T12:08:41.713Z,4.68
2018-05-27T12:11:09.174Z,5.18
2018-05-27T12:13:36.707Z,4.37
2018-05-27T12:16:04.193Z,4.95
2018-05-27T12:18:31.747Z,4.35
2018-05-27T12:20:59.211Z,4.25
2018-05-27T12:23:27.831Z,4.65
2018-05-27T12:25:56.070Z,4.50
2018-05-27T12:28:23.595Z,4.28
2018-05-27T12:30:51.106Z,4.55
2018-05-27T12:33:19.331Z,4.50
2018-05-27T12:35:46.861Z,4.47
2018-05-27T12:38:14.342Z,4.32
2018-05-27T12:40:41.817Z,4.18
2018-05-27T12:43:09.270Z,4.10
2018-05-27T12:45:36.794Z,4.40
2018-05-27T12:48:05.084Z,3.90
2018-05-27T12:50:32.577Z,4.85
2018-05-27T12:53:00.062Z,4.30
2018-05-27T12:55:27.561Z,4.65
2018-05-27T12:57:55.043Z,4.62
2018-05-27T13:00:22.505Z,4.50
2018-05-27T13:02:49.975Z,5.00
2018-05-27T13:05:17.459Z,4.53
2018-05-27T13:07:45.681Z,4.30
2018-05-27T13:10:13.158Z,4.10
2018-05-27T13:12:40.616Z,4.30
2018-05-27T13:15:08.102Z,4.18
2018-05-27T13:17:35.561Z,4.07
2018-05-27T13:20:03.806Z,4.22
2018-05-27T13:22:31.324Z,4.75
2018-05-27T13:24:59.179Z,4.53
2018-05-27T13:27:26.674Z,4.22
2018-05-27T13:29:54.156Z,4.15
2018-05-27T13:32:21.630Z,3.95
2018-05-27T13:34:49.967Z,3.05
2018-05-27T13:37:17.433Z,4.05
2018-05-27T13:39:44.896Z,3.80
2018-05-27T13:42:12.366Z,3.90
2018-05-27T13:44:39.850Z,3.80
2018-05-27T13:47:08.094Z,3.67
2018-05-27T13:49:35.606Z,4.90
2018-05-27T13:52:03.536Z,3.90
2018-05-27T13:54:31.055Z,4.30
2018-05-27T13:56:58.534Z,3.67
2018-05-27T13:59:26.036Z,3.60
2018-05-27T14:01:53.509Z,3.72
2018-05-27T14:04:21.008Z,3.80
2018-05-27T14:06:48.464Z,3.70
2018-05-27T14:09:15.948Z,4.30
2018-05-27T14:11:44.197Z,3.50
2018-05-27T14:14:11.707Z,3.92
2018-05-27T14:16:39.195Z,3.97
2018-05-27T14:19:07.464Z,3.95
2018-05-27T14:21:34.938Z,3.67
2018-05-27T14:24:02.416Z,4.20
2018-05-27T14:26:29.878Z,4.28
2018-05-27T14:28:58.109Z,3.97
2018-05-27T14:31:25.611Z,3.65
2018-05-27T14:33:53.850Z,3.92
2018-05-27T14:36:21.310Z,3.90
2018-05-27T14:38:48.838Z,3.78
2018-05-27T14:41:16.278Z,3.87
2018-05-27T14:43:43.782Z,4.07
2018-05-27T14:46:11.284Z,3.80
2018-05-27T14:48:39.515Z,3.95
2018-05-27T14:51:07.004Z,4.28
2018-05-27T14:53:34.461Z,4.32
2018-05-27T14:56:02.716Z,3.58
2018-05-27T14:58:30.182Z,4.18
2018-05-27T15:00:57.668Z,3.97
2018-05-27T15:03:25.971Z,4.03
2018-05-27T15:05:53.421Z,4.05
2018-05-27T15:08:20.912Z,4.32
2018-05-27T15:10:48.430Z,4.10
2018-05-27T15:13:16.353Z,4.05
2018-05-27T15:15:43.813Z,3.97
2018-05-27T15:18:11.290Z,4.65
2018-05-27T15:20:39.536Z,4.10
2018-05-27T15:23:07.005Z,3.95
2018-05-27T15:25:34.476Z,4.40
2018-05-27T15:28:02.720Z,4.60
2018-05-27T15:30:30.243Z,5.00
2018-05-27T15:32:57.696Z,4.22
2018-05-27T15:35:25.176Z,4.78
2018-05-27T15:37:52.665Z,4.97
2018-05-27T15:40:20.979Z,4.43
2018-05-27T15:42:48.464Z,5.37
2018-05-27T15:45:15.935Z,5.37
2018-05-27T15:47:43.409Z,5.03
2018-05-27T15:50:10.909Z,5.15
2018-05-27T15:52:38.382Z,5.32
2018-05-27T15:55:05.862Z,5.22
2018-05-27T15:57:33.338Z,4.97
2018-05-27T16:00:00.813Z,5.15
2018-05-27T16:02:28.302Z,5.55
2018-05-27T16:04:55.819Z,4.82
2018-05-27T16:07:23.287Z,5.10
2018-05-27T16:09:51.542Z,5.35
2018-05-27T16:12:19.091Z,5.78
2018-05-27T16:14:46.568Z,5.60
2018-05-27T16:17:14.033Z,6.10
2018-05-27T16:19:41.502Z,5.95
2018-05-27T16:22:09.730Z,5.22
2018-05-27T16:24:37.223Z,5.25
2018-05-27T16:27:05.463Z,5.20
2018-05-27T16:29:32.949Z,5.15
2018-05-27T16:32:00.438Z,5.28
2018-05-27T16:34:27.939Z,5.03
2018-05-27T16:36:55.425Z,5.60
2018-05-27T16:39:22.882Z,5.20
2018-05-27T16:41:50.364Z,5.30
2018-05-27T16:44:17.830Z,5.00
2018-05-27T16:46:45.335Z,5.03
2018-05-27T16:49:12.825Z,4.57
2018-05-27T16:51:41.210Z,4.90
2018-05-27T16:54:09.476Z,5.43
2018-05-27T16:56:37.765Z,4.72
2018-05-27T16:59:06.039Z,5.55
2018-05-27T17:01:34.310Z,6.43
2018-05-27T17:04:02.559Z,5.12
2018-05-27T17:06:30.045Z,5.37
2018-05-27T17:08:58.320Z,6.15
2018-05-27T17:11:26.565Z,5.10
2018-05-27T17:13:54.046Z,5.22
2018-05-27T17:16:22.297Z,5.50
2018-05-27T17:18:49.766Z,4.90
2018-05-27T17:21:17.232Z,5.32
2018-05-27T17:23:45.478Z,4.70
2018-05-27T17:26:12.972Z,4.93
2018-05-27T17:28:41.982Z,5.78
2018-05-27T17:31:09.542Z,5.93
2018-05-27T17:33:37.021Z,30.65
2018-05-27T17:36:04.534Z,4.95
2018-05-27T17:38:32.056Z,5.50
2018-05-27T17:41:00.352Z,5.32
2018-05-27T17:43:27.813Z,5.32
2018-05-27T17:45:55.330Z,5.05
2018-05-27T17:48:22.813Z,4.80
2018-05-27T17:50:50.279Z,4.75
2018-05-27T17:53:17.772Z,5.10
2018-05-27T17:55:46.073Z,5.05
2018-05-27T17:58:13.566Z,5.32
2018-05-27T18:00:41.049Z,5.12
2018-05-27T18:03:09.296Z,5.70
2018-05-27T18:05:36.804Z,5.45
2018-05-27T18:08:04.280Z,4.80
2018-05-27T18:10:31.801Z,5.32
2018-05-27T18:13:00.059Z,4.90
2018-05-27T18:15:27.539Z,4.20
2018-05-27T18:17:55.821Z,5.10
2018-05-27T18:20:23.838Z,5.28
2018-05-27T18:22:51.360Z,5.10
2018-05-27T18:25:18.869Z,4.95
2018-05-27T18:27:46.391Z,4.60
2018-05-27T18:30:13.900Z,5.00
2018-05-27T18:32:41.363Z,5.40
2018-05-27T18:35:09.598Z,5.45
2018-05-27T18:37:37.089Z,5.32
2018-05-27T18:40:04.557Z,5.68
2018-05-27T18:42:32.782Z,6.07
2018-05-27T18:45:00.290Z,5.68
2018-05-27T18:47:28.573Z,5.87
2018-05-27T18:49:56.889Z,5.62
2018-05-27T18:52:24.438Z,5.53
2018-05-27T18:54:52.004Z,6.40
2018-05-27T18:57:19.498Z,6.20
2018-05-27T18:59:46.978Z,7.40
2018-05-27T19:02:15.253Z,6.90
2018-05-27T19:04:43.486Z,6.93
2018-05-27T19:07:10.969Z,7.50
2018-05-27T19:09:38.460Z,8.60
2018-05-27T19:12:05.925Z,7.55
2018-05-27T19:14:33.408Z,7.37
2018-05-27T19:17:01.003Z,7.57
2018-05-27T19:19:28.674Z,7.28
2018-05-27T19:21:56.186Z,7.65
2018-05-27T19:24:23.715Z,8.20
2018-05-27T19:26:52.025Z,8.15
2018-05-27T19:29:19.509Z,8.25
2018-05-27T19:31:46.977Z,8.15
2018-05-27T19:34:14.450Z,8.48
2018-05-27T19:36:42.695Z,9.38
2018-05-27T19:39:10.276Z,8.52
2018-05-27T19:41:38.518Z,9.00
2018-05-27T19:44:06.047Z,9.00
2018-05-27T19:46:33.554Z,9.13
2018-05-27T19:49:01.092Z,8.65
2018-05-27T19:51:28.675Z,8.25
2018-05-27T19:53:56.138Z,7.70
2018-05-27T19:56:23.601Z,8.77
2018-05-27T19:58:51.864Z,8.55
2018-05-27T20:01:19.325Z,7.70
2018-05-27T20:03:46.827Z,8.10
2018-05-27T20:06:14.585Z,8.00
2018-05-27T20:11:17.035Z,7.95
2018-05-27T20:13:44.503Z,8.20
2018-05-27T20:16:12.778Z,8.88
2018-05-27T20:18:41.033Z,7.95
2018-05-27T20:21:08.718Z,8.27
2018-05-27T20:23:36.229Z,7.80
2018-05-27T20:26:03.709Z,7.80
2018-05-27T20:28:31.219Z,7.82
2018-05-27T20:30:58.689Z,7.95
2018-05-27T20:33:26.189Z,7.87
2018-05-27T20:35:53.658Z,8.23
2018-05-27T20:38:22.057Z,7.87
2018-05-27T20:40:49.610Z,9.50
2018-05-27T20:43:17.986Z,8.48
2018-05-27T20:45:46.285Z,7.90
2018-05-27T20:48:13.781Z,8.30
2018-05-27T20:50:41.240Z,8.75
2018-05-27T20:53:08.726Z,7.90
2018-05-27T20:55:36.950Z,8.63
2018-05-27T20:58:04.433Z,8.25
2018-05-27T21:00:31.897Z,8.10
2018-05-27T21:02:59.366Z,8.23
2018-05-27T21:05:27.717Z,9.88
2018-05-27T21:07:55.191Z,7.37
2018-05-27T21:10:23.257Z,8.25
2018-05-27T21:12:50.741Z,8.30
2018-05-27T21:15:19.019Z,7.53
2018-05-27T21:17:47.255Z,7.15
2018-05-27T21:20:14.753Z,8.05
2018-05-27T21:22:42.989Z,7.68
2018-05-27T21:25:10.484Z,7.72
2018-05-27T21:27:38.727Z,7.20
2018-05-27T21:30:06.216Z,7.80
2018-05-27T21:32:34.447Z,7.50
2018-05-27T21:35:01.940Z,7.37
2018-05-27T21:37:29.522Z,8.15
2018-05-27T21:39:57.653Z,7.90
2018-05-27T21:42:25.156Z,8.52
2018-05-27T21:44:52.629Z,8.52
2018-05-27T21:47:20.100Z,8.10
2018-05-27T21:49:47.595Z,7.82
2018-05-27T21:52:15.073Z,8.15
2018-05-27T21:54:43.327Z,8.65
2018-05-27T21:57:10.803Z,8.20
2018-05-27T21:59:39.052Z,7.80
2018-05-27T22:02:06.549Z,8.38
2018-05-27T22:04:34.803Z,8.30
2018-05-27T22:07:02.274Z,8.73
2018-05-27T22:09:30.651Z,8.25
2018-05-27T22:11:58.930Z,8.82
2018-05-27T22:14:27.163Z,8.60
2018-05-27T22:16:54.641Z,9.35
2018-05-27T22:19:22.098Z,9.02
2018-05-27T22:21:49.615Z,9.02
2018-05-27T22:24:17.087Z,9.60
2018-05-27T22:26:44.563Z,9.23
2018-05-27T22:29:12.039Z,10.02
2018-05-27T22:31:40.290Z,10.27
2018-05-27T22:34:07.763Z,9.38
2018-05-27T22:36:36.069Z,10.38
2018-05-27T22:39:03.572Z,10.45
2018-05-27T22:41:31.071Z,10.65
2018-05-27T22:43:59.319Z,9.73
2018-05-27T22:46:26.785Z,11.12
2018-05-27T22:48:54.289Z,9.95
2018-05-27T22:51:21.790Z,10.80
2018-05-27T22:53:49.266Z,9.98
2018-05-27T22:56:17.501Z,9.75
2018-05-27T22:58:44.994Z,11.38
2018-05-27T23:01:12.498Z,10.63
2018-05-27T23:03:39.989Z,11.43
2018-05-27T23:06:08.044Z,11.23
2018-05-27T23:08:35.522Z,11.52
2018-05-27T23:11:03.016Z,10.30
2018-05-27T23:13:31.249Z,10.98
2018-05-27T23:15:58.736Z,11.73
2018-05-27T23:18:27.364Z,11.00
2018-05-27T23:20:54.846Z,11.07
2018-05-27T23:23:22.312Z,11.18
2018-05-27T23:25:49.794Z,11.12
2018-05-27T23:28:18.042Z,11.73
2018-05-27T23:30:45.560Z,13.02
2018-05-27T23:33:13.065Z,11.95
2018-05-27T23:35:40.556Z,12.05
2018-05-27T23:38:08.027Z,11.77
2018-05-27T23:40:35.521Z,11.73
2018-05-27T23:43:03.050Z,12.43
2018-05-27T23:45:30.531Z,11.85
2018-05-27T23:47:58.018Z,11.88
2018-05-27T23:50:25.483Z,12.65
2018-05-27T23:52:53.702Z,12.90
2018-05-27T23:55:21.200Z,12.25
2018-05-27T23:57:48.686Z,12.98
